Time;durP1;ratioP1;P1;durP2;ratioP2;P2;SDS_P1;SDS_P2;PMS_P1;PMS_P2;Temp;Humidity;BMP_temperature;BMP_pressure;BME280_temperature;BME280_humidity;BME280_pressure;Samples;Min_cycle;Max_cycle;Signal;HPM_P1;HPM_P2
2024/02/28 00:00:11;;;;;;;26.40;15.10;;;7.80;99.90;;;;;;5103877;28;20456;-68
2024/02/28 00:02:39;;;;;;;26.03;15.20;;;7.70;99.90;;;;;;5108408;28;20445;-68
2024/02/28 00:05:07;;;;;;;26.83;14.80;;;7.70;99.90;;;;;;5109544;28;20442;-68
2024/02/28 00:07:35;;;;;;;29.00;15.40;;;7.70;99.90;;;;;;5108816;28;20544;-68
2024/02/28 00:10:06;;;;;;;26.80;14.80;;;7.70;99.90;;;;;;5108868;28;20437;-68
2024/02/28 00:12:34;;;;;;;26.03;15.17;;;7.60;99.90;;;;;;5107066;28;20518;-68
2024/02/28 00:15:02;;;;;;;26.20;15.80;;;7.70;99.90;;;;;;5108444;28;20446;-67
2024/02/28 00:17:30;;;;;;;26.83;14.70;;;7.70;99.90;;;;;;5107781;28;21112;-67
2024/02/28 00:19:58;;;;;;;25.67;15.87;;;7.70;99.90;;;;;;5107365;28;20442;-67
2024/02/28 00:22:26;;;;;;;26.80;15.73;;;7.70;99.90;;;;;;5108614;28;20514;-67
2024/02/28 00:24:54;;;;;;;27.20;15.37;;;7.70;99.90;;;;;;5108525;28;20436;-67
2024/02/28 00:27:23;;;;;;;28.10;15.63;;;7.70;99.90;;;;;;5108849;28;20453;-67
2024/02/28 00:29:51;;;;;;;26.07;15.33;;;7.70;99.90;;;;;;5105217;28;20516;-67
2024/02/28 00:32:19;;;;;;;27.40;14.90;;;7.60;99.90;;;;;;5107755;28;20548;-68
2024/02/28 00:34:47;;;;;;;31.17;16.20;;;7.70;99.90;;;;;;5104004;28;20525;-68
2024/02/28 00:37:15;;;;;;;27.80;17.03;;;7.60;99.90;;;;;;5106220;28;20462;-68
2024/02/28 00:39:44;;;;;;;31.53;16.23;;;7.60;99.90;;;;;;5104414;28;21040;-68
2024/02/28 00:42:12;;;;;;;28.67;16.53;;;7.70;99.90;;;;;;5107439;28;20888;-68
2024/02/28 00:44:42;;;;;;;31.63;17.20;;;7.70;99.90;;;;;;5101020;28;20947;-68
2024/02/28 00:47:10;;;;;;;27.73;15.70;;;7.70;99.90;;;;;;5106266;28;20496;-68
2024/02/28 00:49:38;;;;;;;27.03;15.97;;;7.70;99.90;;;;;;5106155;28;20449;-68
2024/02/28 00:52:06;;;;;;;26.50;14.80;;;7.70;99.90;;;;;;5106629;28;20469;-68
2024/02/28 00:54:34;;;;;;;26.67;14.70;;;7.70;99.90;;;;;;5100866;28;20486;-68
2024/02/28 00:57:02;;;;;;;27.27;15.20;;;7.70;99.90;;;;;;5106434;28;20543;-68
2024/02/28 00:59:30;;;;;;;28.07;17.63;;;7.70;99.90;;;;;;5107547;28;20554;-68
2024/02/28 01:02:00;;;;;;;31.23;16.07;;;7.70;99.90;;;;;;5107431;28;20458;-68
2024/02/28 01:04:27;;;;;;;29.43;15.77;;;7.60;99.90;;;;;;5107985;28;21069;-67
2024/02/28 01:06:55;;;;;;;27.10;15.87;;;7.60;99.90;;;;;;5104775;28;20552;-68
2024/02/28 01:09:23;;;;;;;30.70;18.60;;;7.60;99.90;;;;;;5102031;28;20481;-68
2024/02/28 01:11:51;;;;;;;29.17;16.37;;;7.50;99.90;;;;;;5106264;28;20456;-68
2024/02/28 01:14:19;;;;;;;30.83;17.20;;;7.50;99.90;;;;;;5106345;28;20465;-68
2024/02/28 01:16:47;;;;;;;26.13;15.27;;;7.50;99.90;;;;;;5106944;28;20486;-68
2024/02/28 01:19:17;;;;;;;29.40;15.40;;;7.50;99.90;;;;;;5105377;28;20496;-68
2024/02/28 01:21:45;;;;;;;26.30;15.60;;;7.50;99.90;;;;;;5105738;28;20538;-68
2024/02/28 01:24:13;;;;;;;28.20;15.83;;;7.50;99.90;;;;;;5099423;28;20485;-68
2024/02/28 01:26:41;;;;;;;26.97;15.87;;;7.40;99.90;;;;;;5100382;28;20566;-68
2024/02/28 01:29:09;;;;;;;27.47;15.13;;;7.40;99.90;;;;;;5100238;28;20565;-68
2024/02/28 01:31:37;;;;;;;31.17;16.47;;;7.50;99.90;;;;;;5102758;28;20449;-67
2024/02/28 01:34:05;;;;;;;29.67;14.90;;;7.50;99.90;;;;;;5104307;28;20452;-68
2024/02/28 01:36:34;;;;;;;29.27;16.70;;;7.60;99.90;;;;;;5106749;28;20514;-68
2024/02/28 01:39:03;;;;;;;24.37;14.90;;;7.60;99.90;;;;;;5104977;28;20485;-68
2024/02/28 01:41:31;;;;;;;30.90;15.63;;;7.50;99.90;;;;;;5105924;28;20441;-69
2024/02/28 01:43:59;;;;;;;31.53;17.60;;;7.50;99.90;;;;;;5106913;28;21095;-68
2024/02/28 01:46:28;;;;;;;31.53;17.30;;;7.50;99.90;;;;;;5106240;28;20464;-68
2024/02/28 01:48:56;;;;;;;28.53;15.53;;;7.50;99.90;;;;;;5105774;28;20477;-68
2024/02/28 01:51:26;;;;;;;28.23;16.30;;;7.40;99.90;;;;;;5106267;28;20453;-69
2024/02/28 01:53:57;;;;;;;31.63;15.40;;;7.40;99.90;;;;;;5105277;28;20463;-68
2024/02/28 01:56:25;;;;;;;30.17;16.13;;;7.50;99.90;;;;;;5105681;28;20533;-68
2024/02/28 01:58:55;;;;;;;27.83;15.53;;;7.50;99.90;;;;;;5106043;28;20472;-68
2024/02/28 02:01:23;;;;;;;30.40;16.73;;;7.50;99.90;;;;;;5101799;28;20846;-68
2024/02/28 02:03:52;;;;;;;30.30;17.73;;;7.50;99.90;;;;;;5103106;28;20460;-68
2024/02/28 02:06:20;;;;;;;31.57;16.57;;;7.50;99.90;;;;;;5104631;28;20469;-69
2024/02/28 02:08:48;;;;;;;27.90;15.27;;;7.50;99.90;;;;;;5105704;28;20469;-68
2024/02/28 02:11:19;;;;;;;31.03;16.90;;;7.40;99.90;;;;;;5105081;28;21012;-69
2024/02/28 02:13:50;;;;;;;33.43;17.23;;;7.40;99.90;;;;;;5105454;28;20480;-68
2024/02/28 02:16:21;;;;;;;29.20;17.27;;;7.40;99.90;;;;;;5102627;28;20854;-67
2024/02/28 02:18:50;;;;;;;33.13;16.67;;;7.40;99.90;;;;;;5103558;28;20473;-69
2024/02/28 02:21:19;;;;;;;29.97;16.10;;;7.40;99.90;;;;;;5103316;28;20468;-68
2024/02/28 02:23:49;;;;;;;27.03;15.07;;;7.40;99.90;;;;;;5102314;28;20546;-68
2024/02/28 02:26:17;;;;;;;28.57;17.27;;;7.40;99.90;;;;;;5104388;28;20538;-68
2024/02/28 02:28:45;;;;;;;29.80;15.43;;;7.40;99.90;;;;;;5104183;28;20514;-68
2024/02/28 02:31:14;;;;;;;31.77;17.13;;;7.40;99.90;;;;;;5104240;28;20467;-68
2024/02/28 02:33:42;;;;;;;27.30;15.73;;;7.40;99.90;;;;;;5105079;28;20955;-68
2024/02/28 02:36:10;;;;;;;27.47;16.57;;;7.40;99.90;;;;;;5105223;28;20477;-69
2024/02/28 02:38:38;;;;;;;29.07;16.73;;;7.30;99.90;;;;;;5101313;28;20512;-69
2024/02/28 02:41:08;;;;;;;33.27;16.70;;;7.40;99.90;;;;;;5104054;28;21073;-68
2024/02/28 02:43:35;;;;;;;30.40;16.93;;;7.40;99.90;;;;;;5102218;28;20510;-68
2024/02/28 02:46:04;;;;;;;25.00;14.37;;;7.40;99.90;;;;;;5103343;28;20525;-68
2024/02/28 02:48:32;;;;;;;31.60;16.57;;;7.50;99.90;;;;;;5102134;28;20497;-68
2024/02/28 02:51:01;;;;;;;30.83;17.23;;;7.50;99.90;;;;;;5104135;28;20476;-68
2024/02/28 02:53:29;;;;;;;30.47;16.93;;;7.40;99.90;;;;;;5101457;28;20480;-68
2024/02/28 02:55:57;;;;;;;28.80;16.60;;;7.40;99.90;;;;;;5104342;28;20459;-68
2024/02/28 02:58:26;;;;;;;33.10;18.37;;;7.40;99.90;;;;;;5103323;28;20474;-68
2024/02/28 03:00:54;;;;;;;30.90;16.73;;;7.30;99.90;;;;;;5102255;28;20435;-68
2024/02/28 03:03:22;;;;;;;34.80;17.40;;;7.40;99.90;;;;;;5105073;28;20542;-68
2024/02/28 03:05:50;;;;;;;31.97;16.90;;;7.30;99.90;;;;;;5103112;28;21157;-69
2024/02/28 03:08:18;;;;;;;30.27;17.37;;;7.30;99.90;;;;;;5096920;28;20469;-68
2024/02/28 03:10:46;;;;;;;28.57;18.00;;;7.30;99.90;;;;;;5103460;28;20457;-68
2024/02/28 03:13:14;;;;;;;30.23;16.50;;;7.30;99.90;;;;;;5105948;28;20462;-69
2024/02/28 03:15:43;;;;;;;29.27;16.10;;;7.30;99.90;;;;;;5103638;28;20797;-68
2024/02/28 03:18:11;;;;;;;29.90;16.07;;;7.20;99.90;;;;;;5105152;28;20445;-68
2024/02/28 03:20:39;;;;;;;25.63;15.30;;;7.20;99.90;;;;;;5097152;28;20766;-69
2024/02/28 03:23:07;;;;;;;29.90;17.00;;;7.20;99.90;;;;;;5104472;28;20433;-68
2024/02/28 03:25:35;;;;;;;26.90;15.37;;;7.20;99.90;;;;;;5103657;28;20446;-69
2024/02/28 03:28:04;;;;;;;27.83;16.03;;;7.10;99.90;;;;;;5104425;28;21006;-68
2024/02/28 03:30:31;;;;;;;26.90;15.00;;;7.10;99.90;;;;;;5103963;28;20596;-68
2024/02/28 03:33:01;;;;;;;25.67;15.63;;;7.10;99.90;;;;;;5102595;28;20806;-68
2024/02/28 03:35:29;;;;;;;29.13;15.43;;;7.10;99.90;;;;;;5104858;28;20434;-68
2024/02/28 03:37:58;;;;;;;30.90;17.47;;;7.10;99.90;;;;;;5101599;28;20569;-68
2024/02/28 03:40:26;;;;;;;29.60;15.73;;;7.20;99.90;;;;;;5105447;28;20566;-68
2024/02/28 03:42:54;;;;;;;25.40;15.00;;;7.20;99.90;;;;;;5103498;28;20449;-69
2024/02/28 03:45:22;;;;;;;30.17;15.20;;;7.10;99.90;;;;;;5104708;28;20824;-68
2024/02/28 03:47:50;;;;;;;27.57;15.13;;;7.10;99.90;;;;;;5101826;28;21102;-68
2024/02/28 03:50:19;;;;;;;29.90;17.57;;;7.10;99.90;;;;;;5102537;28;20501;-69
2024/02/28 03:52:47;;;;;;;28.07;14.50;;;7.10;99.90;;;;;;5102064;28;20456;-69
2024/02/28 03:55:16;;;;;;;27.60;16.07;;;7.00;99.90;;;;;;5108033;28;20441;-69
2024/02/28 03:57:48;;;;;;;26.37;14.57;;;7.10;99.90;;;;;;5108168;28;20561;-68
2024/02/28 04:00:17;;;;;;;28.63;15.63;;;7.10;99.90;;;;;;5108424;28;20505;-68
2024/02/28 04:02:45;;;;;;;28.23;15.60;;;7.10;99.90;;;;;;5108093;28;20441;-68
2024/02/28 04:05:13;;;;;;;24.90;15.30;;;7.00;99.90;;;;;;5107792;28;20497;-67
2024/02/28 04:07:42;;;;;;;28.80;16.23;;;7.00;99.90;;;;;;5104482;28;20497;-68
2024/02/28 04:10:11;;;;;;;30.47;14.43;;;7.00;99.90;;;;;;5103292;28;20465;-68
2024/02/28 04:12:39;;;;;;;32.10;16.57;;;7.00;99.90;;;;;;5105366;28;20461;-69
2024/02/28 04:15:07;;;;;;;31.83;16.17;;;6.90;99.90;;;;;;5108045;28;20540;-68
2024/02/28 04:17:38;;;;;;;28.47;16.10;;;6.90;99.90;;;;;;5106948;28;20890;-68
2024/02/28 04:20:10;;;;;;;27.30;16.10;;;6.90;99.90;;;;;;5105995;28;20493;-68
2024/02/28 04:22:37;;;;;;;26.47;15.40;;;6.80;99.90;;;;;;5107281;28;20443;-68
2024/02/28 04:25:08;;;;;;;28.87;15.80;;;6.80;99.90;;;;;;5109151;28;20444;-68
2024/02/28 04:27:37;;;;;;;24.70;15.00;;;6.80;99.90;;;;;;5099754;28;20496;-68
2024/02/28 04:30:06;;;;;;;29.63;15.53;;;6.80;99.90;;;;;;5107857;28;20470;-68
2024/02/28 04:32:35;;;;;;;27.17;14.77;;;6.80;99.90;;;;;;5106710;28;20536;-68
2024/02/28 04:35:03;;;;;;;27.10;14.57;;;6.70;99.90;;;;;;5108082;28;20490;-68
2024/02/28 04:37:31;;;;;;;27.37;15.23;;;6.70;99.90;;;;;;5105679;28;20492;-68
2024/02/28 04:39:59;;;;;;;26.50;13.50;;;6.70;99.90;;;;;;5104579;28;21029;-68
2024/02/28 04:42:29;;;;;;;26.40;15.00;;;6.60;99.90;;;;;;5105777;28;20440;-68
2024/02/28 04:44:57;;;;;;;28.37;14.77;;;6.60;99.90;;;;;;5106242;28;20574;-68
2024/02/28 04:47:25;;;;;;;23.60;14.27;;;6.60;99.90;;;;;;5106485;28;20461;-68
2024/02/28 04:50:00;;;;;;;25.70;13.33;;;6.60;99.90;;;;;;5107450;28;20554;-68
2024/02/28 04:52:28;;;;;;;25.10;14.30;;;6.60;99.90;;;;;;5105897;28;20558;-68
2024/02/28 04:54:56;;;;;;;24.77;14.67;;;6.50;99.90;;;;;;5107879;28;20508;-68
2024/02/28 04:57:24;;;;;;;29.37;14.53;;;6.50;99.90;;;;;;5106982;28;20463;-68
2024/02/28 04:59:53;;;;;;;26.23;14.37;;;6.40;99.90;;;;;;5105698;28;20469;-68
2024/02/28 05:02:22;;;;;;;27.80;13.10;;;6.40;99.90;;;;;;5105506;28;20462;-68
2024/02/28 05:04:50;;;;;;;28.33;14.03;;;6.40;99.90;;;;;;5105855;28;20529;-69
2024/02/28 05:07:18;;;;;;;25.60;14.10;;;6.40;99.90;;;;;;5105891;28;20467;-69
2024/02/28 05:09:46;;;;;;;25.20;13.60;;;6.40;99.90;;;;;;5105886;28;20456;-68
2024/02/28 05:12:14;;;;;;;23.70;13.50;;;6.40;99.90;;;;;;5106433;28;20929;-70
2024/02/28 05:14:42;;;;;;;27.77;14.97;;;6.40;99.90;;;;;;5104634;28;20804;-69
2024/02/28 05:17:11;;;;;;;24.83;12.53;;;6.40;99.90;;;;;;5103725;28;20569;-69
2024/02/28 05:19:40;;;;;;;24.97;13.83;;;6.30;99.90;;;;;;5106460;28;20470;-69
2024/02/28 05:22:09;;;;;;;27.83;15.10;;;6.40;99.90;;;;;;5106227;28;20960;-69
2024/02/28 05:24:37;;;;;;;24.97;13.03;;;6.30;99.90;;;;;;5105186;28;20551;-69
2024/02/28 05:27:05;;;;;;;28.00;15.73;;;6.30;99.90;;;;;;5105424;28;20509;-69
2024/02/28 05:29:33;;;;;;;24.83;13.07;;;6.30;99.90;;;;;;5104665;28;20470;-68
2024/02/28 05:32:01;;;;;;;24.50;14.00;;;6.30;99.90;;;;;;5106579;28;20947;-69
2024/02/28 05:34:30;;;;;;;25.93;15.00;;;6.30;99.90;;;;;;5105122;28;20510;-68
2024/02/28 05:37:00;;;;;;;28.50;13.20;;;6.30;99.90;;;;;;5104485;28;20471;-70
2024/02/28 05:39:29;;;;;;;25.60;14.60;;;6.20;99.90;;;;;;5105226;28;20972;-69
2024/02/28 05:41:57;;;;;;;24.77;15.13;;;6.20;99.90;;;;;;5104632;28;20506;-68
2024/02/28 05:44:25;;;;;;;27.97;13.97;;;6.20;99.90;;;;;;5106411;28;20451;-69
2024/02/28 05:46:53;;;;;;;26.80;13.97;;;6.20;99.90;;;;;;5105986;28;20483;-67
2024/02/28 05:49:22;;;;;;;26.97;13.17;;;6.20;99.90;;;;;;5103697;28;20813;-69
2024/02/28 05:51:51;;;;;;;27.40;15.83;;;6.20;99.90;;;;;;5106074;28;20520;-69
2024/02/28 05:54:20;;;;;;;24.40;14.13;;;6.20;99.90;;;;;;5106917;28;20451;-70
2024/02/28 05:56:48;;;;;;;24.70;13.20;;;6.20;99.90;;;;;;5105178;28;21017;-69
2024/02/28 05:59:15;;;;;;;28.07;14.80;;;6.20;99.90;;;;;;5105971;28;20492;-69
2024/02/28 06:01:45;;;;;;;26.60;14.57;;;6.20;99.90;;;;;;5105417;28;20475;-68
2024/02/28 06:04:13;;;;;;;27.10;15.70;;;6.20;99.90;;;;;;5106150;28;20447;-67
2024/02/28 06:06:42;;;;;;;28.70;16.23;;;6.10;99.90;;;;;;5104033;28;20444;-68
2024/02/28 06:09:11;;;;;;;22.97;13.73;;;6.10;99.90;;;;;;5106067;28;20442;-68
2024/02/28 06:11:39;;;;;;;27.37;14.90;;;6.10;99.90;;;;;;5105682;28;20528;-70
2024/02/28 06:14:07;;;;;;;26.13;15.17;;;6.10;99.90;;;;;;5106069;28;20640;-68
2024/02/28 06:16:35;;;;;;;24.67;14.03;;;6.00;99.90;;;;;;5107552;28;20459;-68
2024/02/28 06:19:03;;;;;;;25.77;15.07;;;6.00;99.90;;;;;;5100317;28;20536;-67
2024/02/28 06:21:33;;;;;;;25.00;14.30;;;6.10;99.90;;;;;;5086981;28;20486;-67
2024/02/28 06:24:01;;;;;;;24.03;13.90;;;6.00;99.90;;;;;;5087540;28;20443;-67
2024/02/28 06:26:31;;;;;;;23.33;13.70;;;6.00;99.90;;;;;;5105335;28;20489;-68
2024/02/28 06:29:01;;;;;;;26.77;15.43;;;6.00;99.90;;;;;;5107004;28;20466;-67
2024/02/28 06:31:31;;;;;;;30.30;18.53;;;6.10;99.90;;;;;;5106431;28;20537;-68
2024/02/28 06:33:59;;;;;;;31.13;16.13;;;6.10;99.90;;;;;;5105371;28;20462;-69
2024/02/28 06:36:27;;;;;;;26.30;15.27;;;6.10;99.90;;;;;;5106690;28;20925;-67
2024/02/28 06:38:55;;;;;;;26.97;15.33;;;6.10;99.90;;;;;;5107230;28;20506;-67
2024/02/28 06:41:23;;;;;;;28.63;15.93;;;6.10;99.90;;;;;;5100766;28;20565;-67
2024/02/28 06:43:52;;;;;;;28.27;15.80;;;6.10;99.90;;;;;;5107165;28;20440;-67
2024/02/28 06:46:20;;;;;;;28.47;14.00;;;6.10;99.90;;;;;;5089972;28;20466;-67
2024/02/28 06:48:48;;;;;;;28.60;14.90;;;6.20;99.90;;;;;;5100999;28;20508;-68
2024/02/28 06:51:17;;;;;;;29.43;14.73;;;6.20;99.90;;;;;;5106531;28;20997;-67
2024/02/28 06:53:46;;;;;;;25.03;14.20;;;6.20;99.90;;;;;;5105172;28;20429;-67
2024/02/28 06:56:14;;;;;;;29.37;15.17;;;6.20;99.90;;;;;;5107433;28;20825;-67
2024/02/28 06:58:42;;;;;;;26.50;14.57;;;6.30;99.90;;;;;;5107524;28;20594;-67
2024/02/28 07:01:11;;;;;;;29.20;15.30;;;6.40;99.90;;;;;;5106888;28;20480;-67
2024/02/28 07:03:39;;;;;;;27.67;14.83;;;6.50;99.90;;;;;;5095407;28;20442;-67
2024/02/28 07:06:07;;;;;;;27.73;15.27;;;6.50;99.90;;;;;;5090678;28;20537;-67
2024/02/28 07:08:35;;;;;;;27.30;14.40;;;6.60;99.90;;;;;;5092465;28;20546;-67
2024/02/28 07:11:03;;;;;;;27.17;14.80;;;6.70;99.90;;;;;;5107253;28;20447;-68
2024/02/28 07:13:31;;;;;;;26.20;15.00;;;6.70;99.90;;;;;;5096647;28;20438;-67
2024/02/28 07:15:59;;;;;;;26.50;14.67;;;6.90;99.90;;;;;;5086809;28;20450;-68
2024/02/28 07:18:29;;;;;;;25.80;14.83;;;6.90;99.90;;;;;;5087690;28;20545;-67
2024/02/28 07:20:58;;;;;;;25.60;15.03;;;7.00;99.90;;;;;;5106288;28;21351;-68
2024/02/28 07:23:26;;;;;;;25.30;14.93;;;6.90;99.90;;;;;;5097287;28;20568;-67
2024/02/28 07:25:54;;;;;;;23.63;13.37;;;6.80;99.90;;;;;;5086409;28;20513;-67
2024/02/28 07:28:22;;;;;;;25.50;14.60;;;6.60;99.90;;;;;;5089477;28;20479;-67
2024/02/28 07:30:49;;;;;;;27.27;16.57;;;6.50;99.90;;;;;;5090629;28;20547;-67
2024/02/28 07:33:17;;;;;;;25.33;13.63;;;6.50;99.90;;;;;;5105454;28;20443;-67
2024/02/28 07:35:48;;;;;;;27.70;15.60;;;6.50;99.90;;;;;;5110903;28;20455;-67
2024/02/28 07:38:17;;;;;;;30.90;16.40;;;6.60;99.90;;;;;;5107015;28;20463;-67
2024/02/28 07:40:45;;;;;;;26.47;14.10;;;6.60;99.90;;;;;;5108190;28;20989;-67
2024/02/28 07:43:13;;;;;;;26.70;14.90;;;6.60;99.90;;;;;;5106105;28;20488;-67
2024/02/28 07:45:41;;;;;;;27.93;15.27;;;6.70;99.90;;;;;;5109019;28;20449;-67
2024/02/28 07:48:09;;;;;;;26.93;15.10;;;6.60;99.90;;;;;;5108709;28;20567;-67
2024/02/28 07:50:37;;;;;;;31.10;14.93;;;6.60;99.90;;;;;;5109643;28;20444;-67
2024/02/28 07:53:07;;;;;;;27.60;14.53;;;6.60;99.90;;;;;;5109259;28;20939;-67
2024/02/28 07:55:35;;;;;;;29.00;15.47;;;6.60;99.90;;;;;;5108104;28;20501;-67
2024/02/28 07:58:03;;;;;;;26.10;14.63;;;6.60;99.90;;;;;;5109174;28;20466;-67
2024/02/28 08:00:33;;;;;;;24.20;15.43;;;6.60;99.90;;;;;;5108018;28;20521;-66
2024/02/28 08:03:04;;;;;;;28.83;15.17;;;6.60;99.90;;;;;;5109281;28;21014;-67
2024/02/28 08:05:33;;;;;;;30.97;16.73;;;6.80;99.90;;;;;;5106353;28;20857;-68
2024/02/28 08:08:01;;;;;;;25.43;16.00;;;6.90;99.90;;;;;;5108202;28;20802;-68
2024/02/28 08:10:30;;;;;;;28.90;14.70;;;6.90;99.90;;;;;;5106488;28;20449;-68
2024/02/28 08:12:58;;;;;;;28.33;15.77;;;7.00;99.90;;;;;;5102199;28;20445;-67
2024/02/28 08:15:26;;;;;;;31.20;15.90;;;7.00;99.90;;;;;;5088131;28;20442;-67
2024/02/28 08:17:55;;;;;;;28.43;15.80;;;6.80;99.90;;;;;;5087598;28;20480;-67
2024/02/28 08:20:23;;;;;;;26.70;15.60;;;6.80;99.90;;;;;;5088226;28;20453;-67
2024/02/28 08:22:52;;;;;;;32.10;16.37;;;6.70;99.90;;;;;;5094048;28;20476;-68
2024/02/28 08:25:20;;;;;;;33.63;17.63;;;6.70;99.90;;;;;;5097074;28;20469;-67
2024/02/28 08:27:50;;;;;;;31.73;15.33;;;6.70;99.90;;;;;;5110039;28;20545;-67
2024/02/28 08:30:18;;;;;;;27.80;15.80;;;6.80;99.90;;;;;;5110172;28;20447;-67
2024/02/28 08:32:46;;;;;;;30.97;17.30;;;6.90;99.90;;;;;;5105994;28;20605;-67
2024/02/28 08:35:14;;;;;;;29.90;15.27;;;6.90;99.90;;;;;;5096707;28;20445;-67
2024/02/28 08:37:42;;;;;;;28.80;16.40;;;6.90;99.90;;;;;;5089621;28;20468;-67
2024/02/28 08:40:11;;;;;;;26.13;14.93;;;6.90;99.90;;;;;;5088129;28;20966;-67
2024/02/28 08:42:39;;;;;;;27.20;16.30;;;6.90;99.90;;;;;;5096796;28;20536;-67
2024/02/28 08:45:09;;;;;;;29.10;15.70;;;6.90;99.90;;;;;;5094131;28;20448;-67
2024/02/28 08:47:37;;;;;;;30.33;15.37;;;6.90;99.90;;;;;;5090235;28;20883;-66
2024/02/28 08:50:06;;;;;;;27.10;16.17;;;6.90;99.90;;;;;;5089348;28;20493;-67
2024/02/28 08:52:34;;;;;;;25.87;14.67;;;7.00;99.90;;;;;;5088888;28;20533;-67
2024/02/28 08:55:02;;;;;;;34.77;17.57;;;7.10;99.90;;;;;;5093298;28;20824;-67
2024/02/28 08:57:30;;;;;;;25.70;14.43;;;7.10;99.90;;;;;;5104108;28;21200;-67
2024/02/28 08:59:59;;;;;;;28.13;14.60;;;7.20;99.90;;;;;;5109933;28;20449;-67
2024/02/28 09:02:28;;;;;;;27.80;15.10;;;7.30;99.90;;;;;;5109645;28;20488;-67
2024/02/28 09:04:56;;;;;;;31.27;15.80;;;7.40;99.90;;;;;;5105070;28;20442;-67
2024/02/28 09:07:25;;;;;;;29.70;17.43;;;7.50;99.90;;;;;;5089542;28;20988;-67
2024/02/28 09:09:52;;;;;;;30.23;16.13;;;7.70;99.90;;;;;;5089141;28;20450;-67
2024/02/28 09:12:20;;;;;;;27.30;16.00;;;7.80;99.90;;;;;;5094903;28;20441;-67
2024/02/28 09:14:54;;;;;;;27.97;15.93;;;7.90;99.90;;;;;;5101923;28;20880;-67
2024/02/28 09:17:22;;;;;;;25.10;15.30;;;7.90;99.90;;;;;;5108965;28;20451;-67
2024/02/28 09:19:52;;;;;;;26.60;15.83;;;7.90;99.90;;;;;;5109511;28;20935;-67
2024/02/28 09:22:21;;;;;;;25.77;14.80;;;8.00;99.90;;;;;;5109335;28;20978;-67
2024/02/28 09:24:49;;;;;;;26.27;14.40;;;8.00;99.90;;;;;;5105686;28;20434;-67
2024/02/28 09:27:18;;;;;;;32.20;16.77;;;7.80;99.90;;;;;;5089824;28;20474;-67
2024/02/28 09:29:46;;;;;;;30.17;15.53;;;7.70;99.90;;;;;;5097266;28;20450;-67
2024/02/28 09:32:14;;;;;;;26.20;15.07;;;7.70;99.90;;;;;;5088524;28;20452;-67
2024/02/28 09:34:42;;;;;;;27.00;14.57;;;7.70;99.90;;;;;;5096860;28;20441;-67
2024/02/28 09:37:12;;;;;;;27.07;15.30;;;7.70;99.90;;;;;;5104045;28;20510;-67
2024/02/28 09:39:41;;;;;;;27.30;15.30;;;7.70;99.90;;;;;;5109129;28;20550;-68
2024/02/28 09:42:10;;;;;;;30.40;17.00;;;7.80;99.90;;;;;;5108921;28;20986;-67
2024/02/28 09:44:39;;;;;;;29.57;16.30;;;7.70;99.90;;;;;;5105914;28;21246;-67
2024/02/28 09:47:08;;;;;;;28.90;14.70;;;7.70;99.90;;;;;;5088952;28;20470;-67
2024/02/28 09:49:37;;;;;;;26.77;13.77;;;7.70;99.90;;;;;;5088251;28;20457;-68
2024/02/28 09:52:06;;;;;;;28.17;14.27;;;7.70;99.90;;;;;;5088483;28;20442;-67
2024/02/28 09:54:35;;;;;;;26.57;14.60;;;7.80;99.90;;;;;;5096309;28;20934;-67
2024/02/28 09:57:05;;;;;;;27.30;15.07;;;8.00;99.90;;;;;;5088461;28;20482;-67
2024/02/28 09:59:36;;;;;;;28.73;14.33;;;8.00;99.90;;;;;;5096104;28;21026;-67
2024/02/28 10:02:22;;;;;;;25.83;15.10;;;8.10;99.90;;;;;;5108680;28;20437;-67
2024/02/28 10:04:50;;;;;;;27.77;15.10;;;8.30;99.90;;;;;;5096725;28;20492;-67
2024/02/28 10:07:18;;;;;;;30.13;16.53;;;8.30;99.90;;;;;;5088419;28;20466;-67
2024/02/28 10:09:47;;;;;;;26.57;14.87;;;8.30;99.90;;;;;;5088166;28;20505;-68
2024/02/28 10:12:16;;;;;;;30.00;15.77;;;8.40;99.90;;;;;;5088042;28;20446;-67
2024/02/28 10:14:44;;;;;;;29.80;14.47;;;8.50;99.90;;;;;;5097993;28;20455;-67
2024/02/28 10:17:12;;;;;;;25.20;13.90;;;8.60;99.90;;;;;;5108438;28;20467;-68
2024/02/28 10:19:39;;;;;;;28.27;16.37;;;8.70;99.90;;;;;;5108360;28;20486;-67
2024/02/28 10:22:07;;;;;;;26.70;14.67;;;8.80;99.90;;;;;;5108362;28;20442;-67
2024/02/28 10:24:37;;;;;;;27.77;14.90;;;8.70;99.90;;;;;;5106267;28;20477;-68
2024/02/28 10:27:07;;;;;;;25.77;14.30;;;8.50;99.90;;;;;;5088038;28;21078;-67
2024/02/28 10:29:35;;;;;;;29.97;17.50;;;8.40;99.90;;;;;;5087678;28;20551;-67
2024/02/28 10:32:05;;;;;;;25.80;14.40;;;8.40;99.90;;;;;;5101403;28;20460;-67
2024/02/28 10:34:34;;;;;;;26.67;15.80;;;8.40;99.90;;;;;;5106847;28;20533;-67
2024/02/28 10:37:04;;;;;;;26.23;15.20;;;8.40;99.90;;;;;;5091468;28;20462;-67
2024/02/28 10:39:33;;;;;;;30.03;15.50;;;8.30;99.90;;;;;;5108238;28;20905;-67
2024/02/28 10:42:03;;;;;;;27.80;16.10;;;8.30;99.90;;;;;;5107987;28;20445;-67
2024/02/28 10:44:33;;;;;;;28.37;15.97;;;8.20;99.90;;;;;;5107138;28;20484;-67
2024/02/28 10:47:02;;;;;;;28.77;15.57;;;8.10;99.90;;;;;;5093428;28;20473;-67
2024/02/28 10:49:30;;;;;;;26.67;16.23;;;8.20;99.90;;;;;;5108409;28;20452;-67
2024/02/28 10:52:00;;;;;;;29.10;14.40;;;8.30;99.90;;;;;;5107899;28;20845;-67
2024/02/28 10:54:32;;;;;;;24.40;12.87;;;8.50;99.90;;;;;;5107142;28;20899;-67
2024/02/28 10:57:01;;;;;;;24.97;13.17;;;8.70;99.90;;;;;;5086185;28;20476;-68
2024/02/28 10:59:30;;;;;;;22.10;13.10;;;8.80;99.90;;;;;;5086404;28;20616;-67
2024/02/28 11:02:00;;;;;;;28.70;15.33;;;8.90;99.90;;;;;;5085410;28;20456;-68
2024/02/28 11:04:28;;;;;;;26.37;14.07;;;8.80;99.90;;;;;;5103234;28;20516;-67
2024/02/28 11:06:57;;;;;;;49.07;26.60;;;8.80;99.90;;;;;;5086866;28;20846;-67
2024/02/28 11:09:26;;;;;;;29.13;16.13;;;8.90;99.90;;;;;;5086417;28;20458;-67
2024/02/28 11:11:55;;;;;;;26.97;13.73;;;9.10;99.90;;;;;;5086246;28;20534;-67
2024/02/28 11:14:25;;;;;;;26.63;14.47;;;9.00;99.90;;;;;;5092103;28;20476;-67
2024/02/28 11:17:12;;;;;;;28.63;14.50;;;8.80;99.90;;;;;;5097498;28;20472;-66
2024/02/28 11:19:40;;;;;;;32.80;14.30;;;8.50;99.90;;;;;;5086237;28;20801;-67
2024/02/28 11:22:08;;;;;;;26.17;13.73;;;8.20;99.90;;;;;;5086361;28;21126;-68
2024/02/28 11:24:37;;;;;;;25.77;13.67;;;8.10;99.90;;;;;;5091951;28;20560;-67
2024/02/28 11:27:06;;;;;;;27.03;13.50;;;8.00;99.90;;;;;;5087414;28;20964;-68
2024/02/28 11:29:35;;;;;;;27.13;13.77;;;8.00;99.90;;;;;;5088735;28;20450;-68
2024/02/28 11:32:04;;;;;;;23.10;12.63;;;8.00;99.90;;;;;;5089026;28;20956;-68
2024/02/28 11:34:35;;;;;;;25.97;13.80;;;8.00;99.90;;;;;;5106821;28;20525;-68
2024/02/28 11:37:04;;;;;;;24.73;14.10;;;8.10;99.90;;;;;;5094190;28;20470;-69
2024/02/28 11:39:32;;;;;;;25.63;12.83;;;8.10;99.90;;;;;;5087283;28;20460;-68
2024/02/28 11:42:10;;;;;;;26.43;14.23;;;8.00;99.90;;;;;;5086992;28;20532;-68
2024/02/28 11:44:38;;;;;;;26.73;14.17;;;8.00;99.90;;;;;;5087805;28;20510;-68
2024/02/28 11:47:08;;;;;;;27.77;14.10;;;8.00;99.90;;;;;;5093194;28;20564;-68
2024/02/28 11:49:38;;;;;;;24.80;14.40;;;8.10;99.90;;;;;;5103078;28;20456;-68
2024/02/28 11:52:06;;;;;;;26.20;14.07;;;8.30;99.90;;;;;;5107193;28;20445;-68
2024/02/28 11:54:34;;;;;;;26.23;14.07;;;8.50;99.90;;;;;;5107281;28;20438;-68
2024/02/28 11:57:03;;;;;;;30.50;16.37;;;8.70;99.90;;;;;;5106835;28;20567;-68
2024/02/28 11:59:31;;;;;;;25.37;14.40;;;8.70;99.90;;;;;;5107245;28;20506;-68
2024/02/28 12:01:59;;;;;;;26.70;13.77;;;8.70;99.90;;;;;;5107297;28;20488;-69
2024/02/28 12:04:27;;;;;;;28.57;14.33;;;8.80;99.90;;;;;;5107156;28;20648;-68
2024/02/28 12:06:58;;;;;;;25.57;15.20;;;8.90;99.90;;;;;;5093948;28;20496;-66
2024/02/28 12:09:28;;;;;;;26.90;14.63;;;9.00;99.90;;;;;;5087013;28;20447;-67
2024/02/28 12:12:01;;;;;;;23.87;14.67;;;9.00;99.90;;;;;;5086641;28;20468;-67
2024/02/28 12:14:32;;;;;;;24.93;14.63;;;8.90;99.90;;;;;;5102389;28;20444;-67
2024/02/28 12:17:00;;;;;;;30.03;15.43;;;8.70;99.90;;;;;;5097626;28;20468;-67
2024/02/28 12:19:28;;;;;;;26.30;15.03;;;8.50;99.90;;;;;;5091788;28;20450;-67
2024/02/28 12:21:58;;;;;;;27.03;15.13;;;8.50;99.90;;;;;;5102767;28;20447;-67
2024/02/28 12:24:27;;;;;;;31.47;16.37;;;8.40;99.90;;;;;;5107075;28;20474;-68
2024/02/28 12:26:55;;;;;;;26.90;14.40;;;8.30;99.90;;;;;;5105381;28;20489;-68
2024/02/28 12:29:23;;;;;;;27.63;14.40;;;8.30;99.90;;;;;;5107971;28;20439;-68
2024/02/28 12:31:51;;;;;;;25.03;12.67;;;8.20;99.90;;;;;;5104322;28;20514;-68
2024/02/28 12:34:19;;;;;;;29.20;14.90;;;8.20;99.90;;;;;;5101754;28;21193;-68
2024/02/28 12:36:47;;;;;;;25.43;14.40;;;8.20;99.90;;;;;;5103929;28;20535;-68
2024/02/28 12:39:17;;;;;;;22.80;13.70;;;8.20;99.90;;;;;;5104352;28;20450;-68
2024/02/28 12:41:45;;;;;;;24.63;13.20;;;8.20;99.90;;;;;;5104989;28;20823;-68